Date,TemperatureHighF,TemperatureAvgF,TemperatureLowF,DewpointHighF,DewpointAvgF,DewpointLowF,HumidityHigh,HumidityAvg,HumidityLow,PressureMaxIn,PressureMinIn,WindSpeedMaxMPH,WindSpeedAvgMPH,GustSpeedMaxMPH,PrecipitationSumIn
2013-7-1,71.3,66.9,64.4,66.6,64.0,62.4,94,90,80,29.89,29.78,8,1,13,0.22
2013-7-2,68.3,65.1,63.3,64.6,62.9,61.6,95,93,84,30.00,29.84,7,1,9,0.04
2013-7-3,79.4,69.2,62.6,65.1,61.7,58.8,96,79,50,30.08,29.98,7,1,10,0.06
2013-7-4,83.0,72.6,59.2,69.4,64.3,57.6,96,77,53,30.04,29.94,8,2,11,0.00
2013-7-5,82.5,73.7,63.8,70.6,67.3,62.3,96,81,64,30.04,29.94,8,1,10,0.00
2013-7-6,85.0,74.3,68.4,71.2,68.2,64.2,95,82,57,30.03,29.93,7,1,15,0.02
2013-7-7,88.2,76.4,63.6,75.2,68.7,62.0,96,79,52,30.04,29.96,9,1,10,0.00
2013-7-8,91.4,79.2,69.2,74.9,70.9,67.3,96,78,48,30.08,29.98,7,1,10,0.03
2013-7-9,93.5,84.5,72.6,77.9,73.6,70.2,94,72,52,30.03,29.90,9,2,12,0.06
2013-7-10,88.3,81.5,76.3,76.4,73.9,71.1,91,78,62,29.97,29.83,6,1,9,0.00
2013-7-11,83.6,76.9,65.8,73.7,67.6,58.7,94,75,53,29.98,29.88,14,2,17,0.08
2013-7-12,82.6,72.0,62.5,64.3,60.8,56.8,90,70,45,30.05,29.96,14,3,16,0.00
2013-7-13,84.1,73.9,62.3,66.8,62.7,57.6,92,70,48,30.02,29.94,11,2,16,0.06
2013-7-14,85.9,74.0,65.2,72.7,68.7,62.6,95,84,61,30.08,29.97,11,2,13,0.13
2013-7-15,87.4,78.5,72.0,76.6,73.0,70.4,96,84,65,30.18,30.07,7,2,13,0.06
2013-7-16,89.7,80.8,70.7,76.0,72.7,69.1,96,78,58,30.24,30.17,8,1,12,0.00
2013-7-17,92.7,82.7,71.3,77.4,73.3,69.4,95,75,53,30.27,30.12,6,1,10,0.06
2013-7-18,93.1,82.4,73.1,77.8,73.9,71.2,95,77,53,30.16,30.00,8,1,11,0.00
2013-7-19,90.3,81.1,71.0,75.6,71.8,69.2,96,75,53,30.00,29.85,9,1,13,0.11
2013-7-20,91.0,80.4,72.1,76.9,72.0,68.8,93,77,58,29.89,29.75,10,2,14,0.00
2013-7-21,88.4,77.3,70.6,75.7,70.9,67.8,94,82,60,29.90,29.80,8,1,12,0.08
2013-7-22,89.0,79.2,71.3,77.0,72.3,69.4,94,81,61,29.84,29.73,7,1,12,0.00
2013-7-23,91.6,78.8,69.5,76.3,71.4,66.0,94,80,54,29.84,29.70,11,2,15,0.48
2013-7-24,82.1,73.1,66.5,69.4,64.6,57.8,96,76,53,29.96,29.81,9,2,13,0.00
2013-7-25,80.7,70.6,60.1,64.2,60.1,57.0,91,71,48,30.06,29.96,10,1,14,0.08
2013-7-26,78.8,70.0,60.4,70.3,64.3,58.6,95,83,59,30.04,29.92,6,0,9,0.03
2013-7-27,81.4,72.5,64.8,70.7,64.7,54.3,96,78,52,29.94,29.86,9,1,10,0.40
2013-7-28,79.0,67.8,54.8,61.2,57.3,52.3,94,71,44,30.02,29.93,7,1,14,0.00
2013-7-29,78.2,69.0,61.1,65.6,62.5,59.0,95,81,59,30.13,30.01,6,1,10,0.06
2013-7-30,73.3,70.1,66.7,71.6,67.6,63.2,95,92,80,30.09,29.96,7,1,10,0.60
2013-7-31,85.0,76.8,71.4,75.6,71.9,69.1,96,86,70,29.98,29.89,9,1,10,0.00